createdAt,value
2023-04-02T00:00:52.339Z,0
2023-04-02T00:02:35.992Z,0
2023-04-02T00:04:19.759Z,0
2023-04-02T00:06:03.430Z,0
2023-04-02T00:07:47.044Z,0
2023-04-02T00:09:30.911Z,1
2023-04-02T00:11:14.685Z,0
2023-04-02T00:12:58.283Z,0
2023-04-02T00:14:41.847Z,0
2023-04-02T00:16:25.792Z,0
2023-04-02T00:18:09.463Z,0
2023-04-02T00:19:53.104Z,0
2023-04-02T00:21:36.671Z,0
2023-04-02T00:23:20.371Z,0
2023-04-02T00:25:04.100Z,0
2023-04-02T00:26:47.760Z,0
2023-04-02T00:28:31.463Z,0
2023-04-02T00:30:15.259Z,0
2023-04-02T00:31:58.917Z,0
2023-04-02T00:33:42.645Z,0
2023-04-02T00:35:26.459Z,0
2023-04-02T00:37:10.100Z,0
2023-04-02T00:38:53.791Z,0
2023-04-02T00:40:37.566Z,0
2023-04-02T00:42:21.214Z,0
2023-04-02T00:44:04.795Z,0
2023-04-02T00:45:48.588Z,0
2023-04-02T00:47:32.251Z,0
2023-04-02T00:49:15.919Z,0
2023-04-02T00:50:59.787Z,0
2023-04-02T00:52:43.460Z,0
2023-04-02T00:54:27.153Z,0
2023-04-02T00:56:10.733Z,0
2023-04-02T00:57:54.550Z,0
2023-04-02T00:59:38.312Z,0
2023-04-02T01:01:21.814Z,0
2023-04-02T01:03:05.537Z,0
2023-04-02T01:04:49.219Z,0
2023-04-02T01:06:33.068Z,0
2023-04-02T01:08:16.631Z,0
2023-04-02T01:10:00.349Z,0
2023-04-02T01:11:44.033Z,0
2023-04-02T01:13:27.903Z,0
2023-04-02T01:15:11.445Z,0
2023-04-02T01:16:55.314Z,1
2023-04-02T01:18:38.997Z,0
2023-04-02T01:20:22.614Z,0
2023-04-02T01:22:06.344Z,0
2023-04-02T01:23:50.442Z,0
2023-04-02T01:25:33.696Z,0
2023-04-02T01:27:17.445Z,0
2023-04-02T01:29:01.192Z,0
2023-04-02T01:30:44.749Z,0
2023-04-02T01:32:28.490Z,0
2023-04-02T01:34:12.139Z,1
2023-04-02T01:35:56.009Z,0
2023-04-02T01:37:39.559Z,0
2023-04-02T01:39:23.231Z,0
2023-04-02T01:41:07.128Z,0
2023-04-02T01:42:50.824Z,0
2023-04-02T01:44:34.395Z,0
2023-04-02T01:46:18.124Z,0
2023-04-02T01:48:01.756Z,0
2023-04-02T01:49:45.480Z,0
2023-04-02T01:51:29.201Z,1
2023-04-02T01:53:13.048Z,0
2023-04-02T01:54:56.721Z,0
2023-04-02T01:56:40.286Z,0
2023-04-02T01:58:24.112Z,0
2023-04-02T02:00:07.667Z,0
2023-04-02T02:01:51.425Z,1
2023-04-02T02:03:35.238Z,0
2023-04-02T02:05:18.892Z,0
2023-04-02T02:07:02.697Z,0
2023-04-02T02:08:46.255Z,0
2023-04-02T02:10:30.040Z,0
2023-04-02T02:12:13.654Z,0
2023-04-02T02:13:57.286Z,0
2023-04-02T02:15:40.982Z,0
2023-04-02T02:17:24.681Z,0
2023-04-02T02:19:08.534Z,0
2023-04-02T02:20:52.070Z,0
2023-04-02T02:22:35.856Z,0
2023-04-02T02:24:19.646Z,0
2023-04-02T02:26:03.233Z,0
2023-04-02T02:27:47.063Z,0
2023-04-02T02:29:30.718Z,0
2023-04-02T02:31:14.296Z,0
2023-04-02T02:32:58.093Z,0
2023-04-02T02:34:41.844Z,0
2023-04-02T02:36:25.390Z,0
2023-04-02T02:38:09.319Z,0
2023-04-02T02:39:52.937Z,0
2023-04-02T02:41:36.671Z,0
2023-04-02T02:43:20.330Z,0
2023-04-02T02:45:04.088Z,0
2023-04-02T02:46:47.757Z,0
2023-04-02T02:48:31.316Z,0
2023-04-02T02:50:15.020Z,0
2023-04-02T02:51:58.763Z,0
2023-04-02T02:53:42.545Z,0
2023-04-02T02:55:26.207Z,0
2023-04-02T02:57:09.986Z,0
2023-04-02T02:58:53.613Z,0
2023-04-02T03:00:37.379Z,1
2023-04-02T03:02:20.905Z,0
2023-04-02T03:04:04.850Z,0
2023-04-02T03:05:48.438Z,0
2023-04-02T03:07:32.035Z,0
2023-04-02T03:09:15.836Z,0
2023-04-02T03:10:59.441Z,0
2023-04-02T03:12:43.240Z,0
2023-04-02T03:14:26.848Z,0
2023-04-02T03:16:10.625Z,0
2023-04-02T03:17:54.282Z,0
2023-04-02T03:19:38.005Z,0
2023-04-02T03:21:21.822Z,1
2023-04-02T03:23:05.427Z,0
2023-04-02T03:24:49.054Z,0
2023-04-02T03:26:32.849Z,0
2023-04-02T03:28:16.605Z,0
2023-04-02T03:30:00.243Z,0
2023-04-02T03:31:43.976Z,0
2023-04-02T03:33:27.733Z,0
2023-04-02T03:35:11.428Z,0
2023-04-02T03:36:55.007Z,0
2023-04-02T03:38:38.812Z,0
2023-04-02T03:40:22.380Z,0
2023-04-02T03:42:06.219Z,0
2023-04-02T03:43:49.754Z,0
2023-04-02T03:45:33.479Z,0
2023-04-02T03:47:17.190Z,0
2023-04-02T03:49:00.878Z,0
2023-04-02T03:50:44.622Z,0
2023-04-02T03:52:28.389Z,0
2023-04-02T03:54:12.057Z,0
2023-04-02T03:55:55.791Z,0
2023-04-02T03:57:39.480Z,1
2023-04-02T03:59:23.214Z,0
2023-04-02T04:01:06.894Z,0
2023-04-02T04:02:50.698Z,0
2023-04-02T04:04:34.225Z,0
2023-04-02T04:06:17.881Z,0
2023-04-02T04:08:01.660Z,0
2023-04-02T04:09:45.331Z,0
2023-04-02T04:11:29.093Z,0
2023-04-02T04:13:12.720Z,0
2023-04-02T04:14:56.578Z,0
2023-04-02T04:16:40.087Z,0
2023-04-02T04:18:23.914Z,0
2023-04-02T04:20:07.641Z,0
2023-04-02T04:21:51.262Z,0
2023-04-02T04:23:35.031Z,0
2023-04-02T04:25:18.633Z,0
2023-04-02T04:27:02.382Z,0
2023-04-02T04:28:45.993Z,0
2023-04-02T04:30:29.725Z,0
2023-04-02T04:32:13.526Z,0
2023-04-02T04:33:57.195Z,0
2023-04-02T04:35:40.835Z,0
2023-04-02T04:37:24.513Z,0
2023-04-02T04:39:08.213Z,0
2023-04-02T04:40:51.891Z,0
2023-04-02T04:42:35.606Z,0
2023-04-02T04:44:19.312Z,1
2023-04-02T04:46:02.998Z,0
2023-04-02T04:47:46.690Z,1
2023-04-02T04:49:30.394Z,0
2023-04-02T04:51:14.116Z,1
2023-04-02T04:52:57.790Z,1
2023-04-02T04:54:41.509Z,0
2023-04-02T04:56:25.266Z,1
2023-04-02T04:58:08.919Z,2
2023-04-02T04:59:52.678Z,1
2023-04-02T05:01:36.341Z,1
2023-04-02T05:03:20.018Z,1
2023-04-02T05:05:03.748Z,2
2023-04-02T05:06:47.410Z,1
2023-04-02T05:08:31.141Z,2
2023-04-02T05:10:14.872Z,2
2023-04-02T05:11:58.529Z,4
2023-04-02T05:13:42.248Z,3
2023-04-02T05:15:26.036Z,4
2023-04-02T05:17:09.706Z,4
2023-04-02T05:18:53.338Z,5
2023-04-02T05:20:37.081Z,5
2023-04-02T05:22:20.757Z,5
2023-04-02T05:24:04.477Z,7
2023-04-02T05:25:48.208Z,7
2023-04-02T05:27:31.854Z,8
2023-04-02T05:29:15.561Z,9
2023-04-02T05:30:59.346Z,10
2023-04-02T05:32:42.999Z,11
2023-04-02T05:34:26.672Z,12
2023-04-02T05:36:10.375Z,13
2023-04-02T05:37:54.088Z,14
2023-04-02T05:39:37.787Z,15
2023-04-02T05:41:21.486Z,18
2023-04-02T05:43:05.192Z,20
2023-04-02T05:44:48.891Z,23
2023-04-02T05:46:32.601Z,26
2023-04-02T05:48:16.383Z,27
2023-04-02T05:50:00.108Z,29
2023-04-02T05:51:43.800Z,30
2023-04-02T05:53:27.425Z,31
2023-04-02T05:55:11.162Z,34
2023-04-02T05:56:54.853Z,37
2023-04-02T05:58:38.602Z,39
2023-04-02T06:00:22.415Z,39
2023-04-02T06:02:06.000Z,40
2023-04-02T06:03:49.720Z,40
2023-04-02T06:05:33.374Z,42
2023-04-02T06:07:17.108Z,45
2023-04-02T06:09:00.790Z,50
2023-04-02T06:10:44.480Z,52
2023-04-02T06:12:28.193Z,55
2023-04-02T06:14:11.885Z,55
2023-04-02T06:15:55.699Z,53
2023-04-02T06:17:39.265Z,53
2023-04-02T06:19:22.997Z,52
2023-04-02T06:21:06.688Z,55
2023-04-02T06:22:50.384Z,58
2023-04-02T06:24:34.078Z,61
2023-04-02T06:26:17.761Z,63
2023-04-02T06:28:01.511Z,664
2023-04-02T06:29:45.204Z,667
2023-04-02T06:31:28.895Z,687
2023-04-02T06:33:12.586Z,708
2023-04-02T06:34:56.282Z,742
2023-04-02T06:36:40.000Z,765
2023-04-02T06:38:23.666Z,767
2023-04-02T06:40:07.433Z,765
2023-04-02T06:41:51.103Z,759
2023-04-02T06:43:34.779Z,747
2023-04-02T06:45:18.473Z,735
2023-04-02T06:47:02.291Z,724
2023-04-02T06:48:45.883Z,706
2023-04-02T06:50:29.594Z,700
2023-04-02T06:52:13.276Z,698
2023-04-02T06:53:56.984Z,705
2023-04-02T06:55:40.817Z,719
2023-04-02T06:57:24.404Z,721
2023-04-02T06:59:08.106Z,721
2023-04-02T07:00:51.795Z,712
2023-04-02T07:02:35.501Z,698
2023-04-02T07:04:19.193Z,685
2023-04-02T07:06:03.085Z,663
2023-04-02T07:07:46.623Z,642
2023-04-02T07:09:30.314Z,627
2023-04-02T07:11:14.016Z,623
2023-04-02T07:12:57.719Z,633
2023-04-02T07:14:41.410Z,658
2023-04-02T07:16:25.176Z,693
2023-04-02T07:18:08.823Z,734
2023-04-02T07:19:52.505Z,775
2023-04-02T07:21:36.227Z,776
2023-04-02T07:23:19.916Z,776
2023-04-02T07:25:03.599Z,775
2023-04-02T07:26:47.338Z,776
2023-04-02T07:28:31.032Z,776
2023-04-02T07:30:14.738Z,776
2023-04-02T07:31:58.510Z,776
2023-04-02T07:33:42.168Z,776
2023-04-02T07:35:25.980Z,775
2023-04-02T07:37:09.719Z,776
2023-04-02T07:38:53.269Z,776
2023-04-02T07:40:36.967Z,777
2023-04-02T07:42:20.661Z,774
2023-04-02T07:44:04.372Z,776
2023-04-02T07:47:31.817Z,777
2023-04-02T07:49:15.510Z,776
2023-04-02T07:50:59.173Z,776
2023-04-02T07:52:42.910Z,776
2023-04-02T07:54:26.585Z,777
2023-04-02T07:56:10.273Z,776
2023-04-02T07:57:54.008Z,776
2023-04-02T07:59:37.690Z,776
2023-04-02T08:01:21.398Z,776
2023-04-02T08:03:05.066Z,776
2023-04-02T08:04:48.778Z,776
2023-04-02T08:06:32.592Z,776
2023-04-02T08:08:16.170Z,776
2023-04-02T08:09:59.863Z,776
2023-04-02T08:11:43.573Z,776
2023-04-02T08:13:27.315Z,776
2023-04-02T08:15:10.982Z,776
2023-04-02T08:16:54.669Z,776
2023-04-02T08:18:38.453Z,776
2023-04-02T08:20:22.079Z,776
2023-04-02T08:22:05.829Z,775
2023-04-02T08:23:49.464Z,777
2023-04-02T08:25:33.174Z,776
2023-04-02T08:27:16.894Z,776
2023-04-02T08:29:00.722Z,775
2023-04-02T08:30:44.294Z,776
2023-04-02T08:32:27.983Z,776
2023-04-02T08:34:11.715Z,776
2023-04-02T08:35:55.396Z,776
2023-04-02T08:37:39.138Z,776
2023-04-02T08:39:22.811Z,776
2023-04-02T08:41:06.507Z,776
2023-04-02T08:42:50.265Z,777
2023-04-02T08:44:33.916Z,777
2023-04-02T08:46:17.616Z,776
2023-04-02T08:48:01.366Z,776
2023-04-02T08:49:45.025Z,776
2023-04-02T08:51:28.786Z,777
2023-04-02T08:53:12.450Z,777
2023-04-02T08:54:56.236Z,776
2023-04-02T08:56:39.973Z,777
2023-04-02T08:58:23.605Z,777
2023-04-02T09:00:07.437Z,777
2023-04-02T09:01:50.979Z,777
2023-04-02T09:03:34.640Z,777
2023-04-02T09:05:18.364Z,776
2023-04-02T09:07:02.091Z,777
2023-04-02T09:08:45.750Z,777
2023-04-02T09:10:29.532Z,778
2023-04-02T09:12:13.178Z,777
2023-04-02T09:13:56.905Z,777
2023-04-02T09:15:40.564Z,777
2023-04-02T09:17:24.271Z,777
2023-04-02T09:19:08.017Z,777
2023-04-02T09:20:51.751Z,776
2023-04-02T09:22:35.418Z,777
2023-04-02T09:24:19.231Z,777
2023-04-02T09:26:02.853Z,777
2023-04-02T09:27:46.495Z,775
2023-04-02T09:29:30.208Z,777
2023-04-02T09:31:13.877Z,776
2023-04-02T09:32:57.595Z,776
2023-04-02T09:34:41.418Z,777
2023-04-02T09:36:25.105Z,777
2023-04-02T09:38:08.732Z,777
2023-04-02T09:39:52.471Z,778
2023-04-02T09:41:36.118Z,777
2023-04-02T09:43:19.841Z,777
2023-04-02T09:45:03.539Z,777
2023-04-02T09:46:47.243Z,777
2023-04-02T09:48:30.962Z,777
2023-04-02T09:50:14.655Z,777
2023-04-02T09:51:58.355Z,777
2023-04-02T09:53:42.063Z,777
2023-04-02T09:55:25.841Z,777
2023-04-02T09:57:09.466Z,778
2023-04-02T09:58:53.195Z,777
2023-04-02T10:00:36.968Z,776
2023-04-02T10:02:20.557Z,777
2023-04-02T10:04:04.264Z,777
2023-04-02T10:05:48.025Z,777
2023-04-02T10:07:31.687Z,775
2023-04-02T10:09:15.424Z,777
2023-04-02T10:10:59.361Z,777
2023-04-02T10:12:42.815Z,777
2023-04-02T10:14:26.492Z,774
2023-04-02T10:16:10.184Z,778
2023-04-02T10:17:53.895Z,778
2023-04-02T10:19:37.674Z,777
2023-04-02T10:21:21.318Z,777
2023-04-02T10:23:05.100Z,778
2023-04-02T10:24:48.723Z,777
2023-04-02T10:26:32.454Z,778
2023-04-02T10:28:16.140Z,778
2023-04-02T10:29:59.805Z,778
2023-04-02T10:31:43.533Z,777
2023-04-02T10:33:27.220Z,779
2023-04-02T10:35:10.916Z,778
2023-04-02T10:36:54.636Z,778
2023-04-02T10:38:38.394Z,775
2023-04-02T10:40:22.027Z,778
2023-04-02T10:42:05.719Z,779
2023-04-02T10:43:49.421Z,779
2023-04-02T10:45:33.217Z,779
2023-04-02T10:47:16.896Z,776
2023-04-02T10:49:00.732Z,779
2023-04-02T10:50:44.246Z,779
2023-04-02T10:52:27.944Z,779
2023-04-02T10:54:11.689Z,779
2023-04-02T10:55:55.373Z,779
2023-04-02T10:57:39.125Z,778
2023-04-02T10:59:22.763Z,779
2023-04-02T11:01:06.508Z,779
2023-04-02T11:02:50.153Z,778
2023-04-02T11:04:34.105Z,778
2023-04-02T11:06:17.561Z,779
2023-04-02T11:08:01.290Z,778
2023-04-02T11:09:44.963Z,778
2023-04-02T11:11:28.697Z,778
2023-04-02T11:13:12.408Z,778
2023-04-02T11:14:56.054Z,779
2023-04-02T11:16:39.893Z,778
2023-04-02T11:18:23.471Z,778
2023-04-02T11:20:07.223Z,777
2023-04-02T11:21:50.864Z,778
2023-04-02T11:23:34.687Z,778
2023-04-02T11:25:18.276Z,777
2023-04-02T11:27:01.980Z,778
2023-04-02T11:28:45.710Z,778
2023-04-02T11:30:29.377Z,778
2023-04-02T11:32:13.098Z,775
2023-04-02T11:33:56.788Z,778
2023-04-02T11:35:40.532Z,777
2023-04-02T11:37:24.190Z,778
2023-04-02T11:39:07.869Z,778
2023-04-02T11:40:51.578Z,777
2023-04-02T11:42:35.343Z,777
2023-04-02T11:44:18.990Z,778
2023-04-02T11:46:02.741Z,777
2023-04-02T11:47:46.374Z,778
2023-04-02T11:49:30.096Z,778
2023-04-02T11:51:13.894Z,777
2023-04-02T11:52:57.500Z,778
2023-04-02T11:54:41.208Z,778
2023-04-02T11:56:24.920Z,777
2023-04-02T11:58:08.616Z,778
2023-04-02T11:59:52.327Z,777
2023-04-02T12:01:36.058Z,777
2023-04-02T12:03:19.693Z,778
2023-04-02T12:05:03.395Z,778
2023-04-02T12:06:47.098Z,778
2023-04-02T12:08:30.934Z,778
2023-04-02T12:10:14.521Z,777
2023-04-02T12:11:58.277Z,778
2023-04-02T12:13:41.899Z,778
2023-04-02T12:15:25.600Z,778
2023-04-02T12:17:09.313Z,778
2023-04-02T12:18:53.027Z,778
2023-04-02T12:20:36.796Z,779
2023-04-02T12:22:20.461Z,779
2023-04-02T12:24:04.147Z,778
2023-04-02T12:25:48.008Z,777
2023-04-02T12:27:31.552Z,778
2023-04-02T12:29:15.220Z,779
2023-04-02T12:30:58.941Z,779
2023-04-02T12:32:42.642Z,776
2023-04-02T12:34:26.374Z,778
2023-04-02T12:36:10.106Z,778
2023-04-02T12:37:53.747Z,778
2023-04-02T12:39:37.524Z,779
2023-04-02T12:41:21.128Z,778
2023-04-02T12:43:04.837Z,778
2023-04-02T12:44:48.544Z,778
2023-04-02T12:46:32.262Z,778
2023-04-02T12:48:15.924Z,779
2023-04-02T12:49:59.625Z,779
2023-04-02T12:51:43.342Z,778
2023-04-02T12:53:27.056Z,778
2023-04-02T12:55:10.725Z,777
2023-04-02T12:56:54.450Z,778
2023-04-02T12:58:38.197Z,777
2023-04-02T13:00:21.984Z,778
2023-04-02T13:02:05.555Z,778
2023-04-02T13:03:49.230Z,777
2023-04-02T13:05:32.939Z,775
2023-04-02T13:07:16.645Z,777
2023-04-02T13:09:00.342Z,777
2023-04-02T13:10:44.036Z,778
2023-04-02T13:12:27.743Z,778
2023-04-02T13:14:11.461Z,778
2023-04-02T13:15:55.162Z,778
2023-04-02T13:17:38.859Z,778
2023-04-02T13:19:22.554Z,778
2023-04-02T13:21:06.278Z,778
2023-04-02T13:22:49.985Z,778
2023-04-02T13:24:33.699Z,777
2023-04-02T13:26:17.372Z,778
2023-04-02T13:28:01.084Z,778
2023-04-02T13:29:44.783Z,778
2023-04-02T13:31:28.501Z,778
2023-04-02T13:33:12.189Z,777
2023-04-02T13:35:04.007Z,778
2023-04-02T13:36:51.776Z,777
2023-04-02T13:38:35.483Z,778
2023-04-02T13:40:19.182Z,777
2023-04-02T13:42:02.941Z,777
2023-04-02T13:43:46.587Z,775
2023-04-02T13:45:46.556Z,778
2023-04-02T13:47:50.585Z,777
2023-04-02T13:49:54.619Z,777
2023-04-02T13:51:58.969Z,777
2023-04-02T13:54:04.101Z,778
2023-04-02T13:56:09.039Z,777
2023-04-02T13:58:14.106Z,778
2023-04-02T14:00:19.141Z,777
2023-04-02T14:02:24.199Z,777
2023-04-02T14:04:30.258Z,777
2023-04-02T14:06:36.836Z,777
2023-04-02T14:08:43.182Z,777
2023-04-02T14:10:49.845Z,778
2023-04-02T14:12:56.924Z,777
2023-04-02T14:15:04.016Z,778
2023-04-02T14:17:11.303Z,777
2023-04-02T14:19:19.792Z,778
2023-04-02T14:21:27.999Z,778
2023-04-02T14:23:36.104Z,778
2023-04-02T14:25:44.192Z,778
2023-04-02T14:27:52.263Z,777
2023-04-02T14:30:00.656Z,778
2023-04-02T14:32:09.696Z,777
2023-04-02T14:34:19.144Z,778
2023-04-02T14:36:29.239Z,778
2023-04-02T14:38:37.105Z,778
2023-04-02T14:40:20.867Z,778
2023-04-02T14:42:04.507Z,775
2023-04-02T14:44:01.760Z,778
2023-04-02T14:46:09.770Z,778
2023-04-02T14:48:17.827Z,777
2023-04-02T14:50:26.923Z,778
2023-04-02T14:52:35.981Z,778
2023-04-02T14:54:45.093Z,778
2023-04-02T14:56:54.180Z,778
2023-04-02T14:58:58.276Z,778
2023-04-02T15:00:41.960Z,778
2023-04-02T15:02:25.611Z,777
2023-04-02T15:04:09.319Z,777
2023-04-02T15:05:53.090Z,777
2023-04-02T15:07:36.735Z,777
2023-04-02T15:09:20.413Z,772
2023-04-02T15:11:04.128Z,777
2023-04-02T15:13:08.562Z,777
2023-04-02T15:15:13.606Z,778
2023-04-02T15:17:18.570Z,777
2023-04-02T15:19:02.254Z,777
2023-04-02T15:20:46.046Z,777
2023-04-02T15:22:29.664Z,777
2023-04-02T15:24:13.375Z,777
2023-04-02T15:25:57.074Z,777
2023-04-02T15:27:40.783Z,777
2023-04-02T15:29:24.453Z,778
2023-04-02T15:31:08.356Z,777
2023-04-02T15:32:51.945Z,777
2023-04-02T15:34:43.725Z,664
2023-04-02T15:36:47.837Z,723
2023-04-02T15:38:51.768Z,695
2023-04-02T15:40:56.215Z,709
2023-04-02T15:43:01.282Z,476
2023-04-02T15:45:06.295Z,527
2023-04-02T15:47:12.352Z,542
2023-04-02T15:49:18.728Z,699
2023-04-02T15:51:25.886Z,499
2023-04-02T15:53:32.912Z,717
2023-04-02T15:55:40.066Z,541
2023-04-02T15:57:48.000Z,453
2023-04-02T15:59:56.107Z,420
2023-04-02T16:02:04.165Z,493
2023-04-02T16:04:12.276Z,387
2023-04-02T16:06:21.380Z,431
2023-04-02T16:08:30.503Z,439
2023-04-02T16:10:39.605Z,452
2023-04-02T16:12:48.824Z,763
2023-04-02T16:14:57.184Z,777
2023-04-02T16:17:05.225Z,776
2023-04-02T16:19:13.317Z,777
2023-04-02T16:21:21.407Z,760
2023-04-02T16:23:29.519Z,777
2023-04-02T16:25:24.002Z,777
2023-04-02T16:27:07.687Z,777
2023-04-02T16:28:51.391Z,776
2023-04-02T16:30:35.100Z,777
2023-04-02T16:32:35.073Z,776
2023-04-02T16:34:39.195Z,774
2023-04-02T16:36:44.267Z,739
2023-04-02T16:38:49.303Z,736
2023-04-02T16:40:54.361Z,735
2023-04-02T16:42:59.437Z,671
2023-04-02T16:45:04.464Z,657
2023-04-02T16:47:09.556Z,627
2023-04-02T16:49:14.565Z,619
2023-04-02T16:51:06.706Z,595
2023-04-02T16:52:56.562Z,575
2023-04-02T16:54:50.402Z,576
2023-04-02T16:56:34.058Z,178
2023-04-02T16:58:17.774Z,163
2023-04-02T17:00:01.486Z,148
2023-04-02T17:01:45.171Z,143
2023-04-02T17:03:28.888Z,141
2023-04-02T17:05:12.576Z,141
2023-04-02T17:06:56.284Z,135
2023-04-02T17:08:39.992Z,127
2023-04-02T17:10:23.840Z,116
2023-04-02T17:12:07.413Z,113
2023-04-02T17:13:51.089Z,773
2023-04-02T17:15:34.813Z,776
2023-04-02T17:17:18.502Z,776
2023-04-02T17:19:02.232Z,775
2023-04-02T17:20:46.003Z,776
2023-04-02T17:22:29.631Z,776
2023-04-02T17:24:13.302Z,776
2023-04-02T17:25:57.016Z,776
2023-04-02T17:27:40.733Z,777
2023-04-02T17:29:24.419Z,776
2023-04-02T17:31:08.120Z,776
2023-04-02T17:32:51.848Z,776
2023-04-02T17:34:35.625Z,775
2023-04-02T17:36:19.296Z,775
2023-04-02T17:38:03.001Z,775
2023-04-02T17:39:46.720Z,776
2023-04-02T17:41:30.345Z,776
2023-04-02T17:43:14.057Z,776
2023-04-02T17:44:57.773Z,776
2023-04-02T17:46:41.466Z,776
2023-04-02T17:48:25.148Z,776
2023-04-02T17:50:08.887Z,21
2023-04-02T17:51:52.571Z,23
2023-04-02T17:53:36.250Z,22
2023-04-02T17:55:19.958Z,20
2023-04-02T17:57:03.635Z,18
2023-04-02T17:58:47.356Z,16
2023-04-02T18:00:31.055Z,775
2023-04-02T18:02:14.745Z,775
2023-04-02T18:03:58.463Z,444
2023-04-02T18:05:42.167Z,594
2023-04-02T18:07:25.881Z,432
2023-04-02T18:09:09.578Z,328
2023-04-02T18:10:53.259Z,463
2023-04-02T18:12:36.961Z,382
2023-04-02T18:14:20.702Z,776
2023-04-02T18:16:04.465Z,655
2023-04-02T18:17:48.104Z,532
2023-04-02T18:19:31.760Z,775
2023-04-02T18:21:15.460Z,776
2023-04-02T18:22:59.176Z,646
2023-04-02T18:24:42.949Z,491
2023-04-02T18:26:26.560Z,776
2023-04-02T18:28:10.295Z,775
2023-04-02T18:29:53.993Z,775
2023-04-02T18:31:37.663Z,775
2023-04-02T18:33:21.387Z,7
2023-04-02T18:35:05.139Z,7
2023-04-02T18:36:48.762Z,7
2023-04-02T18:38:32.493Z,5
2023-04-02T18:40:16.204Z,9
2023-04-02T18:41:59.978Z,8
2023-04-02T18:43:43.596Z,7
2023-04-02T18:45:27.274Z,9
2023-04-02T18:47:10.988Z,8
2023-04-02T18:48:54.679Z,8
2023-04-02T18:50:38.566Z,9
2023-04-02T18:52:22.102Z,9
2023-04-02T18:54:05.783Z,8
2023-04-02T18:55:49.516Z,8
2023-04-02T18:57:33.369Z,9
2023-04-02T18:59:16.953Z,8
2023-04-02T19:01:00.763Z,9
2023-04-02T19:02:44.420Z,9
2023-04-02T19:04:28.077Z,9
2023-04-02T19:06:11.703Z,8
2023-04-02T19:07:55.536Z,9
2023-04-02T19:09:39.297Z,9
2023-04-02T19:11:22.879Z,8
2023-04-02T19:13:06.695Z,8
2023-04-02T19:14:50.380Z,8
2023-04-02T19:16:34.112Z,9
2023-04-02T19:18:17.753Z,8
2023-04-02T19:20:01.497Z,8
2023-04-02T19:21:45.263Z,9
2023-04-02T19:23:28.876Z,9
2023-04-02T19:25:12.483Z,9
2023-04-02T19:26:56.110Z,8
2023-04-02T19:28:40.014Z,8
2023-04-02T19:30:23.517Z,9
2023-04-02T19:32:07.220Z,9
2023-04-02T19:33:50.909Z,8
2023-04-02T19:35:34.736Z,8
2023-04-02T19:37:18.785Z,8
2023-04-02T19:39:02.179Z,8
2023-04-02T19:40:45.894Z,8
2023-04-02T19:42:29.613Z,8
2023-04-02T19:44:13.362Z,9
2023-04-02T19:45:57.002Z,9
2023-04-02T19:47:40.685Z,9
2023-04-02T19:49:24.407Z,8
2023-04-02T19:51:08.076Z,8
2023-04-02T19:52:51.614Z,9
2023-04-02T19:54:35.465Z,8
2023-04-02T19:56:19.254Z,9
2023-04-02T19:58:02.907Z,9
2023-04-02T19:59:46.581Z,9
2023-04-02T20:01:30.132Z,8
2023-04-02T20:03:13.941Z,9
2023-04-02T20:04:57.721Z,8
2023-04-02T20:06:41.401Z,8
2023-04-02T20:08:25.144Z,8
2023-04-02T20:10:08.752Z,9
2023-04-02T20:11:52.473Z,89
2023-04-02T20:13:36.189Z,8
2023-04-02T20:15:19.841Z,8
2023-04-02T20:17:03.433Z,9
2023-04-02T20:18:47.332Z,9
2023-04-02T20:20:30.822Z,9
2023-04-02T20:22:14.712Z,8
2023-04-02T20:23:58.430Z,7
2023-04-02T20:25:41.952Z,8
2023-04-02T20:27:25.812Z,8
2023-04-02T20:29:09.339Z,7
2023-04-02T20:30:53.227Z,8
2023-04-02T20:32:36.826Z,9
2023-04-02T20:34:20.477Z,8
2023-04-02T20:36:04.367Z,9
2023-04-02T20:37:48.061Z,8
2023-04-02T20:39:31.719Z,8
2023-04-02T20:41:15.592Z,9
2023-04-02T20:42:59.169Z,8
2023-04-02T20:44:42.846Z,9
2023-04-02T20:46:26.591Z,9
2023-04-02T20:48:10.062Z,9
2023-04-02T20:49:53.956Z,8
2023-04-02T20:51:37.618Z,9
2023-04-02T20:53:21.345Z,8
2023-04-02T20:55:04.980Z,8
2023-04-02T20:56:48.721Z,8
2023-04-02T20:58:32.438Z,8
2023-04-02T21:00:16.123Z,5
2023-04-02T21:02:00.154Z,79
2023-04-02T21:03:43.476Z,80
2023-04-02T21:05:27.180Z,77
2023-04-02T21:07:10.818Z,81
2023-04-02T21:08:54.654Z,81
2023-04-02T21:10:38.309Z,81
2023-04-02T21:12:22.087Z,80
2023-04-02T21:14:05.746Z,81
2023-04-02T21:15:49.434Z,81
2023-04-02T21:17:33.165Z,2
2023-04-02T21:19:16.831Z,0
2023-04-02T21:21:00.411Z,0
2023-04-02T21:22:44.170Z,1
2023-04-02T21:24:27.907Z,1
2023-04-02T21:26:11.649Z,0
2023-04-02T21:27:55.206Z,1
2023-04-02T21:29:39.068Z,1
2023-04-02T21:31:22.574Z,1
2023-04-02T21:33:06.471Z,1
2023-04-02T21:34:50.190Z,0
2023-04-02T21:36:33.882Z,1
2023-04-02T21:38:17.546Z,0
2023-04-02T21:40:01.244Z,0
2023-04-02T21:41:44.984Z,1
2023-04-02T21:43:28.653Z,1
2023-04-02T21:45:12.303Z,1
2023-04-02T21:46:55.994Z,1
2023-04-02T21:48:39.772Z,1
2023-04-02T21:50:23.430Z,0
2023-04-02T21:52:07.151Z,1
2023-04-02T21:53:50.882Z,0
2023-04-02T21:55:34.618Z,2
2023-04-02T21:57:18.265Z,1
2023-04-02T21:59:02.075Z,1
2023-04-02T22:00:45.705Z,1
2023-04-02T22:02:29.427Z,0
2023-04-02T22:04:13.068Z,0
2023-04-02T22:05:56.625Z,1
2023-04-02T22:07:40.591Z,0
2023-04-02T22:09:24.261Z,0
2023-04-02T22:11:07.852Z,1
2023-04-02T22:12:51.564Z,1
2023-04-02T22:14:35.334Z,1
2023-04-02T22:16:19.014Z,0
2023-04-02T22:18:02.580Z,0
2023-04-02T22:19:46.457Z,1
2023-04-02T22:21:30.206Z,0
2023-04-02T22:23:13.799Z,0
2023-04-02T22:24:57.540Z,0
2023-04-02T22:28:24.927Z,0
2023-04-02T22:30:08.441Z,0
2023-04-02T22:31:52.324Z,0
2023-04-02T22:33:36.024Z,0
2023-04-02T22:35:19.717Z,1
2023-04-02T22:37:03.458Z,0
2023-04-02T22:38:47.457Z,0
2023-04-02T22:40:30.631Z,0
2023-04-02T22:42:14.484Z,0
2023-04-02T22:43:58.298Z,0
2023-04-02T22:45:41.745Z,0
2023-04-02T22:47:25.581Z,0
2023-04-02T22:49:09.344Z,0
2023-04-02T22:50:53.004Z,0
2023-04-02T22:52:36.700Z,1
2023-04-02T22:54:20.298Z,0
2023-04-02T22:56:04.118Z,0
2023-04-02T22:57:47.825Z,0
2023-04-02T22:59:31.414Z,0
2023-04-02T23:01:15.124Z,0
2023-04-02T23:02:58.964Z,0
2023-04-02T23:04:42.612Z,0
2023-04-02T23:06:26.308Z,1
2023-04-02T23:08:09.917Z,0
2023-04-02T23:09:53.771Z,0
2023-04-02T23:11:37.439Z,0
2023-04-02T23:13:21.110Z,0
2023-04-02T23:15:04.801Z,0
2023-04-02T23:16:48.474Z,0
2023-04-02T23:18:32.310Z,0
2023-04-02T23:20:15.904Z,0
2023-04-02T23:21:59.667Z,0
2023-04-02T23:23:43.346Z,0
2023-04-02T23:25:27.051Z,0
2023-04-02T23:27:10.748Z,0
2023-04-02T23:28:54.532Z,0
2023-04-02T23:30:38.052Z,0
2023-04-02T23:32:21.878Z,0
2023-04-02T23:34:05.593Z,0
2023-04-02T23:35:49.228Z,0
2023-04-02T23:37:32.976Z,0
2023-04-02T23:39:16.626Z,0
2023-04-02T23:41:00.338Z,0
2023-04-02T23:42:44.103Z,0
2023-04-02T23:44:27.756Z,0
2023-04-02T23:46:11.278Z,0
2023-04-02T23:47:55.162Z,0
2023-04-02T23:49:38.830Z,0
2023-04-02T23:51:22.615Z,0
2023-04-02T23:53:06.270Z,0
2023-04-02T23:54:49.933Z,0
2023-04-02T23:56:33.648Z,0
2023-04-02T23:58:17.377Z,0
